Time;durP1;ratioP1;P1;durP2;ratioP2;P2;SDS_P1;SDS_P2;PMS_P1;PMS_P2;Temp;Humidity;BMP_temperature;BMP_pressure;BME280_temperature;BME280_humidity;BME280_pressure;Samples;Min_cycle;Max_cycle;Signal;HPM_P1;HPM_P2
2022/07/02 00:01:49;;;;;;;;;;;;;;;23.69;60.48;99811.41;4456701;32;20302;-82
2022/07/02 00:04:14;;;;;;;;;;;;;;;23.61;60.47;99825.31;4470949;32;19980;-81
2022/07/02 00:06:39;;;;;;;;;;;;;;;23.63;60.47;99815.41;4470885;32;19981;-82
2022/07/02 00:09:04;;;;;;;;;;;;;;;23.57;60.48;99822.09;4456011;32;30226;-82
2022/07/02 00:11:29;;;;;;;;;;;;;;;23.57;60.47;99815.94;4455544;32;32524;-82
2022/07/02 00:13:55;;;;;;;;;;;;;;;23.58;60.47;99817.63;4455962;32;28975;-82
2022/07/02 00:16:20;;;;;;;;;;;;;;;23.40;60.46;99808.50;4456599;32;19992;-82
2022/07/02 00:18:45;;;;;;;;;;;;;;;23.55;60.47;99821.34;4470199;32;27305;-82
2022/07/02 00:21:10;;;;;;;;;;;;;;;23.50;60.46;99814.75;4443592;32;20314;-83
2022/07/02 00:23:36;;;;;;;;;;;;;;;23.47;60.47;99796.41;4456416;32;19977;-82
2022/07/02 00:26:08;;;;;;;;;;;;;;;23.42;60.47;99798.59;4456635;32;20353;-82
2022/07/02 00:28:34;;;;;;;;;;;;;;;23.47;60.46;99801.72;4443610;32;19985;-82
2022/07/02 00:30:59;;;;;;;;;;;;;;;23.34;60.46;99799.25;4443679;32;19995;-83
2022/07/02 00:33:24;;;;;;;;;;;;;;;23.44;60.47;99816.09;4470234;32;23747;-83
2022/07/02 00:35:49;;;;;;;;;;;;;;;23.40;60.46;99819.13;4456578;32;20050;-83
2022/07/02 00:38:15;;;;;;;;;;;;;;;23.23;60.45;99831.19;4456076;32;23376;-84
2022/07/02 00:40:40;;;;;;;;;;;;;;;23.38;60.46;99837.00;4456637;32;20050;-83
2022/07/02 00:43:06;;;;;;;;;;;;;;;23.41;60.46;99839.41;4443571;32;19997;-83
2022/07/02 00:45:33;;;;;;;;;;;;;;;23.33;60.45;99821.47;4470924;32;20451;-83
2022/07/02 00:47:58;;;;;;;;;;;;;;;23.36;60.46;99821.19;4470940;32;20051;-83
2022/07/02 00:50:23;;;;;;;;;;;;;;;23.22;60.45;99830.34;4443250;32;19973;-83
2022/07/02 00:52:49;;;;;;;;;;;;;;;23.08;60.44;99832.44;4443160;32;20046;-83
2022/07/02 00:55:14;;;;;;;;;;;;;;;22.97;60.44;99822.72;4456139;32;19992;-83
2022/07/02 00:57:39;;;;;;;;;;;;;;;23.02;60.44;99830.31;4454900;32;34645;-83
2022/07/02 01:00:05;;;;;;;;;;;;;;;23.13;60.45;99809.00;4470411;32;20005;-82
2022/07/02 01:02:30;;;;;;;;;;;;;;;23.15;60.44;99807.06;4455810;32;19984;-83
2022/07/02 01:04:55;;;;;;;;;;;;;;;23.07;60.44;99810.34;4456178;32;20315;-83
2022/07/02 01:07:20;;;;;;;;;;;;;;;23.14;60.44;99816.00;4442981;32;19996;-83
2022/07/02 01:12:30;;;;;;;;;;;;;;;22.98;60.44;99837.69;4470311;32;19995;-82
2022/07/02 01:14:55;;;;;;;;;;;;;;;22.81;60.44;99838.16;4455414;32;28328;-81
2022/07/02 01:17:21;;;;;;;;;;;;;;;22.79;60.44;99826.84;4470306;32;19965;-83
2022/07/02 01:19:46;;;;;;;;;;;;;;;22.73;60.43;99817.56;4470249;32;19981;-83
2022/07/02 01:22:17;;;;;;;;;;;;;;;22.58;60.42;99818.81;4469790;32;29555;-82
2022/07/02 01:24:43;;;;;;;;;;;;;;;22.33;60.41;99818.13;4470324;32;19989;-83
2022/07/02 01:27:08;;;;;;;;;;;;;;;22.19;60.40;99834.25;4456005;32;20008;-82
2022/07/02 01:29:33;;;;;;;;;;;;;;;22.06;60.39;99854.75;4456158;32;19977;-82
2022/07/02 01:31:58;;;;;;;;;;;;;;;22.00;60.39;99860.47;4456100;32;20013;-82
2022/07/02 01:34:24;;;;;;;;;;;;;;;22.01;60.38;99868.34;4442590;32;25443;-82
2022/07/02 01:36:49;;;;;;;;;;;;;;;21.90;60.39;99880.72;4442582;32;24411;-83
2022/07/02 01:39:14;;;;;;;;;;;;;;;21.65;60.37;99882.59;4443090;32;20014;-83
2022/07/02 01:41:39;;;;;;;;;;;;;;;21.45;60.36;99868.19;4442943;32;19981;-83
2022/07/02 01:44:08;;;;;;;;;;;;;;;21.21;60.34;99912.34;4442500;32;27268;-86
2022/07/02 01:46:33;;;;;;;;;;;;;;;20.91;60.32;99904.84;4456262;32;19996;-84
2022/07/02 01:48:58;;;;;;;;;;;;;;;20.93;60.32;99889.69;4455896;32;20028;-84
2022/07/02 01:51:24;;;;;;;;;;;;;;;20.80;60.32;99889.72;4442510;32;20414;-84
2022/07/02 01:53:49;;;;;;;;;;;;;;;20.67;60.32;99899.53;4455861;32;20044;-84
2022/07/02 01:56:14;;;;;;;;;;;;;;;20.57;60.31;99892.31;4455628;32;22853;-84
2022/07/02 01:58:39;;;;;;;;;;;;;;;20.60;60.31;99882.41;4455976;32;19984;-84
2022/07/02 02:01:04;;;;;;;;;;;;;;;20.36;60.30;99874.38;4455486;32;25602;-85
2022/07/02 02:03:30;;;;;;;;;;;;;;;20.14;60.28;99866.25;4442575;32;24042;-83
2022/07/02 02:05:55;;;;;;;;;;;;;;;19.90;60.27;99848.50;4442769;32;19969;-84
2022/07/02 02:08:20;;;;;;;;;;;;;;;20.00;60.27;99821.44;4455217;32;28727;-84
2022/07/02 02:10:45;;;;;;;;;;;;;;;20.11;60.29;99784.53;4454056;32;28131;-85
2022/07/02 02:13:10;;;;;;;;;;;;;;;20.03;60.28;99781.59;4454794;32;36246;-84
2022/07/02 02:15:36;;;;;;;;;;;;;;;20.09;60.29;99770.56;4441865;32;32218;-84
2022/07/02 02:18:01;;;;;;;;;;;;;;;20.12;60.29;99759.81;4469594;32;22254;-85
2022/07/02 02:20:26;;;;;;;;;;;;;;;20.15;60.29;99778.94;4442639;32;20016;-86
2022/07/02 02:22:51;;;;;;;;;;;;;;;20.11;60.29;99789.81;4455292;32;22406;-85
2022/07/02 02:25:17;;;;;;;;;;;;;;;20.13;60.29;99790.56;4455749;32;20341;-85
2022/07/02 02:27:42;;;;;;;;;;;;;;;19.93;60.28;99776.97;4443200;32;19980;-85
2022/07/02 02:30:08;;;;;;;;;;;;;;;20.02;60.28;99753.47;4443114;32;20005;-85
2022/07/02 02:32:33;;;;;;;;;;;;;;;20.04;60.28;99756.84;4443030;32;20012;-85
2022/07/02 02:34:58;;;;;;;;;;;;;;;20.11;60.29;99760.75;4455773;32;19981;-85
2022/07/02 02:37:23;;;;;;;;;;;;;;;19.98;60.28;99763.41;4442058;32;28923;-85
2022/07/02 02:39:49;;;;;;;;;;;;;;;19.85;60.28;99778.44;4442667;32;20011;-85
2022/07/02 02:42:14;;;;;;;;;;;;;;;19.78;60.27;99793.03;4442770;32;20059;-84
2022/07/02 02:44:39;;;;;;;;;;;;;;;19.79;60.27;99805.28;4455899;32;20004;-85
2022/07/02 02:47:04;;;;;;;;;;;;;;;19.69;60.26;99815.63;4469919;32;19987;-85
2022/07/02 02:49:29;;;;;;;;;;;;;;;19.69;60.26;99818.28;4469550;32;20450;-84
2022/07/02 02:51:55;;;;;;;;;;;;;;;19.55;60.26;99826.28;4442418;32;20246;-83
2022/07/02 02:54:20;;;;;;;;;;;;;;;19.57;60.26;99841.06;4442652;32;19977;-85
2022/07/02 02:56:45;;;;;;;;;;;;;;;19.54;60.25;99837.78;4454926;32;27851;-84
2022/07/02 02:59:10;;;;;;;;;;;;;;;19.60;60.25;99850.56;4455552;32;19997;-84
2022/07/02 03:01:36;;;;;;;;;;;;;;;19.56;60.26;99857.88;4441832;32;20112;-84
2022/07/02 03:04:01;;;;;;;;;;;;;;;19.45;60.24;99854.25;4454524;32;29599;-84
2022/07/02 03:06:26;;;;;;;;;;;;;;;19.39;60.25;99862.53;4442251;32;19981;-86
2022/07/02 03:08:51;;;;;;;;;;;;;;;19.55;60.26;99872.03;4442351;32;20255;-85
2022/07/02 03:11:17;;;;;;;;;;;;;;;19.40;60.25;99869.50;4441757;32;20057;-83
2022/07/02 03:13:42;;;;;;;;;;;;;;;19.60;60.26;99864.63;4441610;32;31143;-83
2022/07/02 03:16:07;;;;;;;;;;;;;;;19.65;60.26;99876.69;4454993;32;20025;-84
2022/07/02 03:18:32;;;;;;;;;;;;;;;19.61;60.25;99878.69;4454636;32;24526;-83
2022/07/02 03:20:58;;;;;;;;;;;;;;;19.60;60.26;99882.25;4454612;32;20321;-85
2022/07/02 03:23:23;;;;;;;;;;;;;;;19.57;60.26;99879.84;4455124;32;20017;-85
2022/07/02 03:25:48;;;;;;;;;;;;;;;19.52;60.25;99872.19;4469257;32;20111;-84
2022/07/02 03:28:13;;;;;;;;;;;;;;;19.60;60.26;99884.91;4469372;32;19993;-83
2022/07/02 03:30:38;;;;;;;;;;;;;;;19.58;60.25;99878.87;4454849;32;20321;-83
2022/07/02 03:33:04;;;;;;;;;;;;;;;19.56;60.25;99888.69;4455095;32;20288;-85
2022/07/02 03:35:29;;;;;;;;;;;;;;;19.44;60.24;99911.47;4455967;32;20068;-83
2022/07/02 03:37:54;;;;;;;;;;;;;;;19.55;60.25;99905.50;4442072;32;20817;-83
2022/07/02 03:40:19;;;;;;;;;;;;;;;19.57;60.25;99917.66;4455062;32;19984;-83
2022/07/02 03:42:45;;;;;;;;;;;;;;;19.60;60.26;99911.31;4454803;32;20295;-84
2022/07/02 03:45:10;;;;;;;;;;;;;;;19.64;60.26;99918.09;4442071;32;20031;-84
2022/07/02 03:47:35;;;;;;;;;;;;;;;19.70;60.27;99911.56;4441378;32;25299;-83
2022/07/02 03:50:01;;;;;;;;;;;;;;;19.72;60.27;99926.34;4454828;32;20481;-86
2022/07/02 03:52:26;;;;;;;;;;;;;;;19.86;60.27;99936.81;4441605;32;20055;-83
2022/07/02 03:54:51;;;;;;;;;;;;;;;19.91;60.27;99932.09;4468995;32;20016;-85
2022/07/02 03:57:16;;;;;;;;;;;;;;;19.74;60.26;99950.03;4455171;32;19997;-85
2022/07/02 03:59:42;;;;;;;;;;;;;;;20.00;60.27;99950.91;4454285;32;23368;-85
2022/07/02 04:02:07;;;;;;;;;;;;;;;19.94;60.27;99957.47;4441950;32;20023;-85
2022/07/02 04:04:32;;;;;;;;;;;;;;;19.92;60.27;99959.38;4441193;32;32911;-86
2022/07/02 04:06:57;;;;;;;;;;;;;;;19.81;60.26;99960.06;4441787;32;19996;-82
2022/07/02 04:09:24;;;;;;;;;;;;;;;19.97;60.27;99965.19;4454582;32;20028;-85
2022/07/02 04:11:49;;;;;;;;;;;;;;;20.17;60.29;99964.69;4441776;32;20539;-84
2022/07/02 04:14:14;;;;;;;;;;;;;;;20.21;60.28;99971.44;4454642;32;20105;-85
2022/07/02 04:16:39;;;;;;;;;;;;;;;20.25;60.29;99974.72;4454805;32;19976;-85
2022/07/02 04:19:04;;;;;;;;;;;;;;;20.19;60.28;99983.91;4441022;32;24945;-87
2022/07/02 04:21:30;;;;;;;;;;;;;;;20.36;60.29;99989.84;4454142;32;23004;-86
2022/07/02 04:23:55;;;;;;;;;;;;;;;20.50;60.30;99977.41;4454637;32;20052;-85
2022/07/02 04:26:20;;;;;;;;;;;;;;;20.57;60.31;99987.53;4441461;32;19985;-86
2022/07/02 04:28:45;;;;;;;;;;;;;;;20.57;60.31;99972.50;4468366;32;19981;-87
2022/07/02 04:31:10;;;;;;;;;;;;;;;20.37;60.29;99965.97;4440877;32;27178;-85
2022/07/02 04:33:36;;;;;;;;;;;;;;;20.39;60.29;99971.97;4454949;32;25912;-87
2022/07/02 04:36:01;;;;;;;;;;;;;;;20.40;60.30;99970.19;4471218;32;20337;-86
2022/07/02 04:38:26;;;;;;;;;;;;;;;20.53;60.30;99981.62;4443883;32;20024;-86
2022/07/02 04:40:52;;;;;;;;;;;;;;;20.59;60.30;100001.53;4442485;32;25869;-86
2022/07/02 04:43:17;;;;;;;;;;;;;;;20.57;60.31;99998.12;4443626;32;20011;-86
2022/07/02 04:45:43;;;;;;;;;;;;;;;20.54;60.30;99988.59;4442960;32;29702;-86
2022/07/02 04:48:08;;;;;;;;;;;;;;;20.64;60.31;99988.81;4442929;32;25649;-86
2022/07/02 04:50:33;;;;;;;;;;;;;;;20.81;60.32;99991.97;4456546;32;19973;-87
2022/07/02 04:52:58;;;;;;;;;;;;;;;20.88;60.32;99996.84;4443335;32;20340;-86
2022/07/02 04:55:24;;;;;;;;;;;;;;;20.85;60.33;100003.19;4456034;32;24153;-86
2022/07/02 04:57:49;;;;;;;;;;;;;;;20.85;60.33;100008.50;4443553;32;20011;-87
2022/07/02 05:00:15;;;;;;;;;;;;;;;20.97;60.33;100012.06;4456395;32;20357;-87
2022/07/02 05:02:40;;;;;;;;;;;;;;;20.86;60.32;100007.53;4456559;32;19972;-86
2022/07/02 05:05:05;;;;;;;;;;;;;;;20.88;60.32;100013.56;4456234;32;20321;-86
2022/07/02 05:07:31;;;;;;;;;;;;;;;20.83;60.31;100036.84;4443403;32;20259;-87
2022/07/02 05:09:58;;;;;;;;;;;;;;;20.69;60.31;100019.28;4456340;32;19989;-87
2022/07/02 05:12:24;;;;;;;;;;;;;;;20.69;60.31;100024.56;4456625;32;20010;-86
2022/07/02 05:14:49;;;;;;;;;;;;;;;20.65;60.31;100017.81;4443497;32;20002;-86
2022/07/02 05:17:14;;;;;;;;;;;;;;;21.05;60.33;100025.56;4442819;32;26600;-87
2022/07/02 05:19:40;;;;;;;;;;;;;;;21.17;60.33;100034.47;4442547;32;26532;-86
2022/07/02 05:22:05;;;;;;;;;;;;;;;21.19;60.34;100046.63;4443283;32;19996;-85
2022/07/02 05:24:30;;;;;;;;;;;;;;;21.09;60.33;100043.81;4455678;32;27675;-86
2022/07/02 05:26:55;;;;;;;;;;;;;;;21.09;60.34;100050.91;4456405;32;20007;-87
2022/07/02 05:29:21;;;;;;;;;;;;;;;21.25;60.35;100048.03;4455631;32;25896;-87
2022/07/02 05:31:46;;;;;;;;;;;;;;;21.31;60.34;100058.19;4443182;32;20342;-86
2022/07/02 05:34:11;;;;;;;;;;;;;;;21.40;60.35;100042.47;4443164;32;20011;-86
2022/07/02 05:36:36;;;;;;;;;;;;;;;21.49;60.36;100064.78;4455536;32;25209;-86
2022/07/02 05:39:01;;;;;;;;;;;;;;;21.61;60.35;100076.31;4442470;32;27139;-86
2022/07/02 05:41:27;;;;;;;;;;;;;;;21.62;60.36;100072.72;4442854;32;20000;-86
2022/07/02 05:43:52;;;;;;;;;;;;;;;21.81;60.37;100078.38;4470146;32;20302;-86
2022/07/02 05:46:17;;;;;;;;;;;;;;;22.00;60.38;100093.75;4442778;32;20020;-87
2022/07/02 05:48:42;;;;;;;;;;;;;;;22.09;60.38;100106.38;4455502;32;24815;-86
2022/07/02 05:51:08;;;;;;;;;;;;;;;22.17;60.39;100111.09;4442592;32;19988;-86
2022/07/02 05:53:33;;;;;;;;;;;;;;;22.04;60.38;100106.72;4443059;32;20028;-86
2022/07/02 05:55:58;;;;;;;;;;;;;;;22.18;60.38;100118.09;4456182;32;20005;-88
2022/07/02 05:58:23;;;;;;;;;;;;;;;22.29;60.40;100099.59;4456016;32;20007;-86
2022/07/02 06:00:49;;;;;;;;;;;;;;;22.17;60.39;100100.50;4456046;32;19995;-86
2022/07/02 06:03:14;;;;;;;;;;;;;;;22.10;60.39;100096.62;4442109;32;32957;-87
2022/07/02 06:08:23;;;;;;;;;;;;;;;22.33;60.39;100090.44;4458141;32;20335;-85
2022/07/02 06:10:49;;;;;;;;;;;;;;;22.24;60.39;100088.47;4442393;32;26641;-87
2022/07/02 06:13:15;;;;;;;;;;;;;;;22.46;60.40;100080.56;4442492;32;20642;-86
2022/07/02 06:15:40;;;;;;;;;;;;;;;22.54;60.41;100090.63;4443172;32;20289;-85
2022/07/02 06:18:06;;;;;;;;;;;;;;;22.57;60.41;100096.53;4455763;32;19999;-87
2022/07/02 06:20:31;;;;;;;;;;;;;;;22.72;60.42;100099.84;4455598;32;20016;-85
2022/07/02 06:22:56;;;;;;;;;;;;;;;22.75;60.41;100096.09;4442722;32;20128;-87
2022/07/02 06:25:21;;;;;;;;;;;;;;;22.88;60.42;100100.34;4442655;32;20009;-86
2022/07/02 06:27:47;;;;;;;;;;;;;;;23.04;60.44;100097.38;4455763;32;20333;-86
2022/07/02 06:30:12;;;;;;;;;;;;;;;23.26;60.44;100092.06;4442808;32;19997;-86
2022/07/02 06:32:37;;;;;;;;;;;;;;;23.31;60.45;100098.81;4442302;32;20130;-86
2022/07/02 06:35:02;;;;;;;;;;;;;;;23.27;60.45;100093.75;4442386;32;20011;-87
2022/07/02 06:37:28;;;;;;;;;;;;;;;23.43;60.46;100103.16;4455721;32;20003;-86
2022/07/02 06:39:53;;;;;;;;;;;;;;;23.26;60.44;100096.53;4469910;32;20016;-86
2022/07/02 06:42:29;;;;;;;;;;;;;;;23.19;60.44;100106.78;4455363;32;20001;-86
2022/07/02 06:44:55;;;;;;;;;;;;;;;23.53;60.46;100109.41;4456826;32;20048;-88
2022/07/02 06:47:20;;;;;;;;;;;;;;;23.82;60.48;100104.44;4455456;32;20017;-86
2022/07/02 06:49:46;;;;;;;;;;;;;;;23.88;60.47;100114.56;4442879;32;20004;-86
2022/07/02 06:52:11;;;;;;;;;;;;;;;24.25;60.50;100111.53;4442460;32;19995;-86
2022/07/02 06:54:36;;;;;;;;;;;;;;;24.57;60.51;100119.50;4442314;32;20046;-86
2022/07/02 06:57:02;;;;;;;;;;;;;;;24.46;60.51;100123.09;4454729;32;19973;-86
2022/07/02 06:59:27;;;;;;;;;;;;;;;24.47;60.51;100111.47;4442221;32;20329;-86
2022/07/02 07:01:52;;;;;;;;;;;;;;;24.49;60.50;100114.84;4442035;32;20046;-86
2022/07/02 07:04:18;;;;;;;;;;;;;;;24.53;60.51;100118.94;4454897;32;24946;-86
2022/07/02 07:09:11;;;;;;;;;;;;;;;24.89;60.53;100116.78;4455739;32;20022;-86
2022/07/02 07:11:36;;;;;;;;;;;;;;;24.78;60.53;100118.53;4454996;32;20016;-87
2022/07/02 07:14:01;;;;;;;;;;;;;;;24.79;60.53;100124.72;4454810;32;22508;-86
2022/07/02 07:16:27;;;;;;;;;;;;;;;24.78;60.53;100113.22;4455147;32;19976;-87
2022/07/02 07:19:07;;;;;;;;;;;;;;;24.99;60.54;100115.91;4469433;32;19988;-86
2022/07/02 07:21:35;;;;;;;;;;;;;;;25.04;60.54;100126.16;4443813;32;20008;-86
2022/07/02 07:24:01;;;;;;;;;;;;;;;25.26;60.56;100127.78;4455166;32;20023;-86
2022/07/02 07:26:26;;;;;;;;;;;;;;;25.38;60.56;100127.59;4441405;32;28303;-86
2022/07/02 07:28:51;;;;;;;;;;;;;;;25.53;60.56;100133.38;4441584;32;23938;-86
2022/07/02 07:31:20;;;;;;;;;;;;;;;25.59;60.56;100126.66;4441789;32;20316;-85
2022/07/02 07:33:45;;;;;;;;;;;;;;;25.54;60.57;100137.72;4455399;32;19997;-86
2022/07/02 07:36:10;;;;;;;;;;;;;;;25.33;60.56;100132.47;4441972;32;19988;-85
2022/07/02 07:38:36;;;;;;;;;;;;;;;25.29;60.55;100141.69;4454955;32;19969;-86
2022/07/02 07:41:01;;;;;;;;;;;;;;;25.47;60.56;100133.06;4441414;32;20422;-85
2022/07/02 07:43:26;;;;;;;;;;;;;;;25.52;60.56;100141.50;4454522;32;20284;-86
2022/07/02 07:45:51;;;;;;;;;;;;;;;25.52;60.56;100160.16;4441317;32;26728;-85
2022/07/02 07:48:16;;;;;;;;;;;;;;;25.42;60.56;100136.16;4441876;32;20000;-87
2022/07/02 07:50:42;;;;;;;;;;;;;;;25.64;60.57;100137.75;4454816;32;20053;-85
2022/07/02 07:53:07;;;;;;;;;;;;;;;25.85;60.58;100143.03;4454290;32;23901;-87
2022/07/02 07:55:32;;;;;;;;;;;;;;;25.94;60.59;100134.22;4441153;32;21558;-86
2022/07/02 07:57:57;;;;;;;;;;;;;;;25.74;60.58;100137.81;4441754;32;20242;-86
2022/07/02 08:00:23;;;;;;;;;;;;;;;25.80;60.58;100138.13;4454553;32;20016;-86
2022/07/02 08:02:48;;;;;;;;;;;;;;;25.84;60.58;100142.19;4468700;32;19991;-85
2022/07/02 08:05:13;;;;;;;;;;;;;;;25.77;60.57;100145.53;4454687;32;20506;-86
2022/07/02 08:07:39;;;;;;;;;;;;;;;25.66;60.57;100149.97;4454855;32;20018;-86
2022/07/02 08:10:05;;;;;;;;;;;;;;;25.83;60.58;100140.53;4443585;32;20322;-85
2022/07/02 08:12:30;;;;;;;;;;;;;;;26.01;60.59;100146.00;4443761;32;20045;-85
2022/07/02 08:14:55;;;;;;;;;;;;;;;26.23;60.60;100153.75;4443083;32;23515;-86
2022/07/02 08:17:20;;;;;;;;;;;;;;;26.16;60.61;100141.97;4456544;32;20034;-86
2022/07/02 08:19:46;;;;;;;;;;;;;;;26.22;60.60;100148.56;4469983;32;26420;-85
2022/07/02 08:22:11;;;;;;;;;;;;;;;26.17;60.61;100150.81;4455909;32;23995;-86
2022/07/02 08:24:36;;;;;;;;;;;;;;;26.32;60.61;100138.75;4443289;32;20011;-86
2022/07/02 08:27:01;;;;;;;;;;;;;;;26.39;60.61;100142.56;4443541;32;19976;-85
2022/07/02 08:29:27;;;;;;;;;;;;;;;26.47;60.61;100132.00;4456320;32;20329;-86
2022/07/02 08:31:52;;;;;;;;;;;;;;;26.85;60.63;100138.31;4456114;32;19988;-86
2022/07/02 08:34:17;;;;;;;;;;;;;;;26.60;60.62;100145.09;4470651;32;19993;-85
2022/07/02 08:36:42;;;;;;;;;;;;;;;26.88;60.64;100132.66;4456511;32;20321;-86
2022/07/02 08:39:08;;;;;;;;;;;;;;;27.05;60.65;100137.31;4456138;32;20495;-86
2022/07/02 08:41:33;;;;;;;;;;;;;;;27.11;60.64;100138.53;4469780;32;25547;-86
2022/07/02 08:43:59;;;;;;;;;;;;;;;27.19;60.66;100131.47;4442880;32;20231;-86
2022/07/02 08:46:24;;;;;;;;;;;;;;;27.32;60.66;100133.81;4443314;32;19985;-87
2022/07/02 08:48:50;;;;;;;;;;;;;;;27.21;60.66;100137.53;4442871;32;21006;-86
2022/07/02 08:51:15;;;;;;;;;;;;;;;27.30;60.66;100133.13;4443236;32;20001;-87
2022/07/02 08:53:41;;;;;;;;;;;;;;;27.54;60.68;100127.25;4442858;32;21004;-87
2022/07/02 08:56:07;;;;;;;;;;;;;;;27.65;60.67;100126.22;4443499;32;20000;-87
2022/07/02 08:58:33;;;;;;;;;;;;;;;27.49;60.66;100126.88;4456574;32;20493;-88
2022/07/02 09:00:58;;;;;;;;;;;;;;;28.02;60.69;100123.47;4443344;32;19997;-88
2022/07/02 09:03:23;;;;;;;;;;;;;;;27.83;60.69;100122.59;4443631;32;20020;-88
2022/07/02 09:05:52;;;;;;;;;;;;;;;27.65;60.67;100126.22;4456195;32;28770;-89
2022/07/02 09:08:17;;;;;;;;;;;;;;;27.85;60.69;100127.81;4456521;32;20000;-88
2022/07/02 09:10:43;;;;;;;;;;;;;;;28.06;60.70;100132.88;4443566;32;20270;-88
2022/07/02 09:13:08;;;;;;;;;;;;;;;27.94;60.69;100131.44;4456548;32;19980;-88
2022/07/02 09:15:34;;;;;;;;;;;;;;;28.00;60.69;100120.94;4456097;32;26395;-88
2022/07/02 09:17:59;;;;;;;;;;;;;;;28.08;60.70;100117.50;4470829;32;20404;-87
2022/07/02 09:20:24;;;;;;;;;;;;;;;28.27;60.70;100114.72;4455388;32;24008;-89
2022/07/02 09:22:50;;;;;;;;;;;;;;;28.65;60.72;100124.25;4443806;32;19980;-88
2022/07/02 09:25:19;;;;;;;;;;;;;;;28.32;60.71;100112.41;4443441;32;20023;-89
2022/07/02 09:27:45;;;;;;;;;;;;;;;28.27;60.70;100112.03;4456589;32;19980;-89
2022/07/02 09:30:10;;;;;;;;;;;;;;;28.43;60.71;100108.66;4443587;32;20317;-88
2022/07/02 09:32:36;;;;;;;;;;;;;;;28.43;60.71;100119.38;4456341;32;19969;-88
2022/07/02 09:35:01;;;;;;;;;;;;;;;28.73;60.73;100116.25;4445180;32;20284;-87
2022/07/02 09:37:28;;;;;;;;;;;;;;;28.36;60.71;100111.09;4471066;32;20008;-88
2022/07/02 09:39:53;;;;;;;;;;;;;;;28.31;60.71;100113.41;4443581;32;20001;-88
2022/07/02 09:42:28;;;;;;;;;;;;;;;28.32;60.71;100116.91;4443425;32;19989;-88
2022/07/02 09:44:53;;;;;;;;;;;;;;;28.61;60.72;100116.66;4470967;32;19974;-89
2022/07/02 09:47:31;;;;;;;;;;;;;;;28.71;60.73;100117.41;4443500;32;20024;-88
2022/07/02 09:49:56;;;;;;;;;;;;;;;28.65;60.73;100126.06;4456614;32;19996;-88
2022/07/02 09:52:22;;;;;;;;;;;;;;;28.67;60.73;100121.41;4443513;32;20004;-88
2022/07/02 09:54:47;;;;;;;;;;;;;;;28.49;60.73;100126.78;4443372;32;19988;-88
2022/07/02 09:57:12;;;;;;;;;;;;;;;28.62;60.73;100123.69;4442942;32;20047;-89
2022/07/02 09:59:38;;;;;;;;;;;;;;;28.60;60.73;100123.84;4443220;32;20037;-88
2022/07/02 10:02:03;;;;;;;;;;;;;;;28.52;60.72;100142.53;4456493;32;20268;-88
2022/07/02 10:04:29;;;;;;;;;;;;;;;28.51;60.72;100129.31;4443404;32;20022;-88
2022/07/02 10:06:54;;;;;;;;;;;;;;;28.83;60.74;100117.97;4443275;32;20321;-88
2022/07/02 10:09:20;;;;;;;;;;;;;;;28.87;60.74;100109.53;4470194;32;20419;-88
2022/07/02 10:11:45;;;;;;;;;;;;;;;29.12;60.75;100112.34;4443162;32;20028;-88
2022/07/02 10:14:10;;;;;;;;;;;;;;;29.25;60.76;100104.69;4455430;32;28812;-88
2022/07/02 10:16:35;;;;;;;;;;;;;;;29.42;60.77;100106.44;4455752;32;20000;-86
2022/07/02 10:19:01;;;;;;;;;;;;;;;29.53;60.77;100105.34;4455567;32;20000;-87
2022/07/02 10:21:26;;;;;;;;;;;;;;;29.59;60.78;100107.38;4455086;32;24549;-87
2022/07/02 10:23:51;;;;;;;;;;;;;;;29.87;60.80;100108.81;4470015;32;20034;-87
2022/07/02 10:26:16;;;;;;;;;;;;;;;29.71;60.78;100110.59;4455836;32;20261;-86
2022/07/02 10:28:42;;;;;;;;;;;;;;;29.81;60.79;100114.84;4442746;32;19993;-86
2022/07/02 10:31:08;;;;;;;;;;;;;;;29.97;60.80;100103.28;4454727;32;20014;-87
2022/07/02 10:33:59;;;;;;;;;;;;;;;30.17;60.80;100103.84;4455744;32;20001;-87
2022/07/02 10:36:25;;;;;;;;;;;;;;;30.32;60.81;100109.41;4452579;32;20014;-87
2022/07/02 10:38:57;;;;;;;;;;;;;;;30.61;60.83;100107.06;4455660;32;20019;-86
2022/07/02 10:41:26;;;;;;;;;;;;;;;30.37;60.82;100107.88;4455516;32;20036;-86
2022/07/02 10:43:53;;;;;;;;;;;;;;;30.32;60.82;100115.59;4442506;32;19976;-86
2022/07/02 10:46:18;;;;;;;;;;;;;;;30.29;60.82;100107.06;4442439;32;19985;-86
2022/07/02 10:48:47;;;;;;;;;;;;;;;30.12;60.81;100095.44;4454743;32;31287;-86
2022/07/02 10:51:19;;;;;;;;;;;;;;;30.10;60.80;100097.47;4455369;32;20020;-86
2022/07/02 10:53:51;;;;;;;;;;;;;;;30.35;60.81;100103.69;4455530;32;19984;-86
2022/07/02 10:56:16;;;;;;;;;;;;;;;30.30;60.81;100109.56;4455364;32;20044;-86
2022/07/02 10:58:41;;;;;;;;;;;;;;;30.02;60.80;100097.41;4455445;32;19992;-86
2022/07/02 11:01:07;;;;;;;;;;;;;;;29.96;60.79;100098.91;4442089;32;19999;-86
2022/07/02 11:03:33;;;;;;;;;;;;;;;30.17;60.80;100091.25;4442329;32;20298;-86
2022/07/02 11:06:01;;;;;;;;;;;;;;;30.25;60.81;100093.09;4442304;32;19985;-86
2022/07/02 11:08:36;;;;;;;;;;;;;;;30.13;60.81;100097.97;4469726;32;20056;-86
2022/07/02 11:11:01;;;;;;;;;;;;;;;30.32;60.81;100095.97;4455184;32;19987;-86
2022/07/02 11:13:33;;;;;;;;;;;;;;;30.31;60.82;100094.28;4454985;32;20016;-86
2022/07/02 11:15:58;;;;;;;;;;;;;;;30.40;60.82;100104.00;4442229;32;19977;-86
2022/07/02 11:18:24;;;;;;;;;;;;;;;30.43;60.81;100104.50;4454511;32;31324;-86
2022/07/02 11:20:49;;;;;;;;;;;;;;;30.48;60.82;100085.19;4454805;32;21430;-86
2022/07/02 11:23:14;;;;;;;;;;;;;;;30.62;60.83;100099.84;4454662;32;27631;-86
2022/07/02 11:25:39;;;;;;;;;;;;;;;30.74;60.84;100095.78;4468628;32;27087;-86
2022/07/02 11:28:05;;;;;;;;;;;;;;;30.77;60.84;100092.78;4454756;32;23452;-86
2022/07/02 11:30:31;;;;;;;;;;;;;;;31.19;60.87;100087.13;4441750;32;19977;-86
2022/07/02 11:32:56;;;;;;;;;;;;;;;31.16;60.86;100074.00;4455217;32;19993;-86
2022/07/02 11:35:21;;;;;;;;;;;;;;;30.98;60.85;100084.13;4442104;32;20317;-86
2022/07/02 11:37:46;;;;;;;;;;;;;;;30.98;60.84;100087.66;4455116;32;20327;-86
2022/07/02 11:40:19;;;;;;;;;;;;;;;31.09;60.85;100079.22;4468435;32;26662;-86
2022/07/02 11:42:44;;;;;;;;;;;;;;;30.91;60.84;100070.53;4441578;32;20021;-86
2022/07/02 11:45:09;;;;;;;;;;;;;;;30.99;60.86;100078.56;4468390;32;31915;-86
2022/07/02 11:47:41;;;;;;;;;;;;;;;30.87;60.85;100074.59;4469103;32;19980;-85
2022/07/02 11:50:07;;;;;;;;;;;;;;;31.10;60.86;100070.16;4441809;32;20052;-86
2022/07/02 11:52:32;;;;;;;;;;;;;;;30.95;60.85;100061.13;4454652;32;19988;-86
2022/07/02 11:54:57;;;;;;;;;;;;;;;31.21;60.86;100063.56;4454789;32;20257;-86
2022/07/02 11:57:31;;;;;;;;;;;;;;;31.44;60.87;100059.09;4454626;32;20003;-85
2022/07/02 11:59:56;;;;;;;;;;;;;;;31.36;60.87;100064.53;4441715;32;19991;-86
2022/07/02 12:02:21;;;;;;;;;;;;;;;31.19;60.86;100062.91;4441520;32;19980;-85
2022/07/02 12:04:47;;;;;;;;;;;;;;;31.26;60.87;100058.53;4453943;32;24854;-85
2022/07/02 12:07:13;;;;;;;;;;;;;;;31.52;60.87;100049.31;4454483;32;20005;-86
2022/07/02 12:09:38;;;;;;;;;;;;;;;31.42;60.88;100055.75;4453768;32;25074;-86
2022/07/02 12:12:04;;;;;;;;;;;;;;;31.63;60.89;100054.28;4441502;32;20268;-86
2022/07/02 12:14:29;;;;;;;;;;;;;;;31.79;60.90;100043.47;4441352;32;20005;-86
2022/07/02 12:16:54;;;;;;;;;;;;;;;31.60;60.88;100057.34;4454287;32;20041;-86
2022/07/02 12:19:22;;;;;;;;;;;;;;;31.48;60.88;100059.59;4468539;32;19969;-86
2022/07/02 12:21:48;;;;;;;;;;;;;;;31.40;60.87;100059.62;4441769;32;20265;-86
2022/07/02 12:24:22;;;;;;;;;;;;;;;31.42;60.87;100049.53;4454193;32;20053;-85
2022/07/02 12:26:55;;;;;;;;;;;;;;;31.65;60.89;100045.03;4468377;32;20367;-86
2022/07/02 12:32:06;;;;;;;;;;;;;;;31.53;60.88;100049.16;4456312;32;19987;-85
2022/07/02 12:34:50;;;;;;;;;;;;;;;31.55;60.89;100047.13;4468431;32;19994;-85
2022/07/02 12:37:22;;;;;;;;;;;;;;;31.61;60.88;100043.72;4468444;32;20356;-86
2022/07/02 12:39:47;;;;;;;;;;;;;;;31.65;60.89;100052.25;4441120;32;20056;-86
2022/07/02 12:42:20;;;;;;;;;;;;;;;31.62;60.89;100053.47;4425725;32;898199;-86
2022/07/02 12:44:54;;;;;;;;;;;;;;;31.90;60.89;100037.66;4454207;32;19981;-86